sensor_id;sensor_type;location;lat;lon;timestamp;temperature;humidity
33865;DHT22;20159;51.072;13.526;2022-12-31T00:00:35;12.00;88.80
33865;DHT22;20159;51.072;13.526;2022-12-31T00:03:03;12.10;88.80
33865;DHT22;20159;51.072;13.526;2022-12-31T00:05:30;12.10;88.70
33865;DHT22;20159;51.072;13.526;2022-12-31T00:07:56;12.20;88.70
33865;DHT22;20159;51.072;13.526;2022-12-31T00:10:21;12.20;88.80
33865;DHT22;20159;51.072;13.526;2022-12-31T00:12:47;12.30;88.80
33865;DHT22;20159;51.072;13.526;2022-12-31T00:15:13;12.30;88.90
33865;DHT22;20159;51.072;13.526;2022-12-31T00:17:38;12.40;88.60
33865;DHT22;20159;51.072;13.526;2022-12-31T00:20:04;12.40;88.40
33865;DHT22;20159;51.072;13.526;2022-12-31T00:22:30;12.40;88.30
33865;DHT22;20159;51.072;13.526;2022-12-31T00:24:55;12.50;88.10
33865;DHT22;20159;51.072;13.526;2022-12-31T00:27:21;12.50;88.20
33865;DHT22;20159;51.072;13.526;2022-12-31T00:29:46;12.50;88.10
33865;DHT22;20159;51.072;13.526;2022-12-31T00:32:12;12.60;88.20
33865;DHT22;20159;51.072;13.526;2022-12-31T00:34:37;12.70;88.20
33865;DHT22;20159;51.072;13.526;2022-12-31T00:37:03;12.70;88.10
33865;DHT22;20159;51.072;13.526;2022-12-31T00:39:28;12.70;88.20
33865;DHT22;20159;51.072;13.526;2022-12-31T00:41:54;12.50;88.50
33865;DHT22;20159;51.072;13.526;2022-12-31T00:44:20;12.80;88.30
33865;DHT22;20159;51.072;13.526;2022-12-31T00:46:45;12.80;88.40
33865;DHT22;20159;51.072;13.526;2022-12-31T00:49:11;12.90;88.50
33865;DHT22;20159;51.072;13.526;2022-12-31T00:51:36;12.90;88.20
33865;DHT22;20159;51.072;13.526;2022-12-31T00:54:02;13.00;88.30
33865;DHT22;20159;51.072;13.526;2022-12-31T00:56:29;13.00;88.20
33865;DHT22;20159;51.072;13.526;2022-12-31T00:58:55;13.10;88.10
33865;DHT22;20159;51.072;13.526;2022-12-31T01:01:29;13.10;88.20
33865;DHT22;20159;51.072;13.526;2022-12-31T01:03:59;13.20;88.50
33865;DHT22;20159;51.072;13.526;2022-12-31T01:06:25;13.20;88.30
33865;DHT22;20159;51.072;13.526;2022-12-31T01:08:51;13.20;88.30
33865;DHT22;20159;51.072;13.526;2022-12-31T01:11:18;13.30;88.30
33865;DHT22;20159;51.072;13.526;2022-12-31T01:13:49;13.30;88.30
33865;DHT22;20159;51.072;13.526;2022-12-31T01:16:16;13.40;88.20
33865;DHT22;20159;51.072;13.526;2022-12-31T01:18:42;13.40;88.10
33865;DHT22;20159;51.072;13.526;2022-12-31T01:21:10;13.50;88.00
33865;DHT22;20159;51.072;13.526;2022-12-31T01:23:36;13.50;88.10
33865;DHT22;20159;51.072;13.526;2022-12-31T01:26:04;13.50;87.90
33865;DHT22;20159;51.072;13.526;2022-12-31T01:28:31;13.60;87.80
33865;DHT22;20159;51.072;13.526;2022-12-31T01:30:57;13.60;87.70
33865;DHT22;20159;51.072;13.526;2022-12-31T01:33:23;13.60;87.80
33865;DHT22;20159;51.072;13.526;2022-12-31T01:35:48;13.60;87.70
33865;DHT22;20159;51.072;13.526;2022-12-31T01:38:14;13.70;87.80
33865;DHT22;20159;51.072;13.526;2022-12-31T01:40:40;13.70;87.70
33865;DHT22;20159;51.072;13.526;2022-12-31T01:43:16;13.70;87.90
33865;DHT22;20159;51.072;13.526;2022-12-31T01:45:42;13.70;88.10
33865;DHT22;20159;51.072;13.526;2022-12-31T01:48:11;13.80;87.90
33865;DHT22;20159;51.072;13.526;2022-12-31T01:50:38;13.80;87.60
33865;DHT22;20159;51.072;13.526;2022-12-31T01:53:06;13.90;87.70
33865;DHT22;20159;51.072;13.526;2022-12-31T01:55:37;13.90;87.80
33865;DHT22;20159;51.072;13.526;2022-12-31T01:58:11;13.90;87.80
33865;DHT22;20159;51.072;13.526;2022-12-31T02:00:37;14.00;87.80
33865;DHT22;20159;51.072;13.526;2022-12-31T02:03:04;14.00;87.60
33865;DHT22;20159;51.072;13.526;2022-12-31T02:05:45;14.00;87.60
33865;DHT22;20159;51.072;13.526;2022-12-31T02:08:13;14.10;87.60
33865;DHT22;20159;51.072;13.526;2022-12-31T02:10:38;14.10;87.30
33865;DHT22;20159;51.072;13.526;2022-12-31T02:13:04;14.10;87.40
33865;DHT22;20159;51.072;13.526;2022-12-31T02:15:43;14.10;87.30
33865;DHT22;20159;51.072;13.526;2022-12-31T02:18:32;14.20;87.70
33865;DHT22;20159;51.072;13.526;2022-12-31T02:21:27;14.20;87.20
33865;DHT22;20159;51.072;13.526;2022-12-31T02:27:09;14.30;87.20
33865;DHT22;20159;51.072;13.526;2022-12-31T02:30:04;14.30;87.20
33865;DHT22;20159;51.072;13.526;2022-12-31T02:32:32;14.30;87.40
33865;DHT22;20159;51.072;13.526;2022-12-31T02:35:07;14.40;87.10
33865;DHT22;20159;51.072;13.526;2022-12-31T02:37:37;14.40;87.10
33865;DHT22;20159;51.072;13.526;2022-12-31T02:40:07;14.40;87.00
33865;DHT22;20159;51.072;13.526;2022-12-31T02:42:34;14.50;86.80
33865;DHT22;20159;51.072;13.526;2022-12-31T02:44:59;14.50;86.70
33865;DHT22;20159;51.072;13.526;2022-12-31T02:51:02;14.50;86.70
33865;DHT22;20159;51.072;13.526;2022-12-31T02:54:09;14.60;86.60
33865;DHT22;20159;51.072;13.526;2022-12-31T02:57:12;14.60;86.60
33865;DHT22;20159;51.072;13.526;2022-12-31T02:59:49;14.60;86.60
33865;DHT22;20159;51.072;13.526;2022-12-31T03:02:34;14.60;86.50
33865;DHT22;20159;51.072;13.526;2022-12-31T03:05:02;14.60;86.30
33865;DHT22;20159;51.072;13.526;2022-12-31T03:07:30;14.60;86.60
33865;DHT22;20159;51.072;13.526;2022-12-31T03:09:57;14.60;86.70
33865;DHT22;20159;51.072;13.526;2022-12-31T03:12:25;14.70;86.60
33865;DHT22;20159;51.072;13.526;2022-12-31T03:15:32;14.70;86.50
33865;DHT22;20159;51.072;13.526;2022-12-31T03:20:28;14.70;86.40
33865;DHT22;20159;51.072;13.526;2022-12-31T03:23:16;14.80;86.10
33865;DHT22;20159;51.072;13.526;2022-12-31T03:25:43;14.80;85.90
33865;DHT22;20159;51.072;13.526;2022-12-31T03:28:15;14.80;85.80
33865;DHT22;20159;51.072;13.526;2022-12-31T03:30:44;14.80;85.80
33865;DHT22;20159;51.072;13.526;2022-12-31T03:33:10;14.80;85.60
33865;DHT22;20159;51.072;13.526;2022-12-31T03:35:37;14.70;85.60
33865;DHT22;20159;51.072;13.526;2022-12-31T03:38:03;14.80;85.70
33865;DHT22;20159;51.072;13.526;2022-12-31T03:40:30;14.70;85.70
33865;DHT22;20159;51.072;13.526;2022-12-31T03:42:56;14.70;85.90
33865;DHT22;20159;51.072;13.526;2022-12-31T03:45:22;14.70;85.90
33865;DHT22;20159;51.072;13.526;2022-12-31T03:47:48;14.70;86.00
33865;DHT22;20159;51.072;13.526;2022-12-31T03:50:16;14.70;86.00
33865;DHT22;20159;51.072;13.526;2022-12-31T03:52:42;14.70;86.10
33865;DHT22;20159;51.072;13.526;2022-12-31T03:55:08;14.80;86.20
33865;DHT22;20159;51.072;13.526;2022-12-31T03:57:34;14.80;86.20
33865;DHT22;20159;51.072;13.526;2022-12-31T04:00:00;14.80;86.10
33865;DHT22;20159;51.072;13.526;2022-12-31T04:02:25;14.80;86.00
33865;DHT22;20159;51.072;13.526;2022-12-31T04:04:51;14.80;86.20
33865;DHT22;20159;51.072;13.526;2022-12-31T04:07:16;14.80;86.10
33865;DHT22;20159;51.072;13.526;2022-12-31T04:09:42;14.80;86.10
33865;DHT22;20159;51.072;13.526;2022-12-31T04:12:07;14.80;86.20
33865;DHT22;20159;51.072;13.526;2022-12-31T04:14:33;14.90;86.20
33865;DHT22;20159;51.072;13.526;2022-12-31T04:16:58;14.90;86.10
33865;DHT22;20159;51.072;13.526;2022-12-31T04:19:24;14.90;86.10
33865;DHT22;20159;51.072;13.526;2022-12-31T04:21:49;14.90;86.10
33865;DHT22;20159;51.072;13.526;2022-12-31T04:24:15;14.90;86.20
33865;DHT22;20159;51.072;13.526;2022-12-31T04:26:40;14.90;86.10
33865;DHT22;20159;51.072;13.526;2022-12-31T04:29:08;14.90;86.20
33865;DHT22;20159;51.072;13.526;2022-12-31T04:31:34;14.90;86.20
33865;DHT22;20159;51.072;13.526;2022-12-31T04:33:59;14.90;86.10
33865;DHT22;20159;51.072;13.526;2022-12-31T04:36:25;14.90;86.00
33865;DHT22;20159;51.072;13.526;2022-12-31T04:38:50;14.90;86.00
33865;DHT22;20159;51.072;13.526;2022-12-31T04:41:16;14.90;86.00
33865;DHT22;20159;51.072;13.526;2022-12-31T04:43:43;14.90;86.00
33865;DHT22;20159;51.072;13.526;2022-12-31T04:46:09;14.90;86.00
33865;DHT22;20159;51.072;13.526;2022-12-31T04:48:35;14.90;86.10
33865;DHT22;20159;51.072;13.526;2022-12-31T04:51:00;14.90;86.20
33865;DHT22;20159;51.072;13.526;2022-12-31T04:53:26;14.90;86.10
33865;DHT22;20159;51.072;13.526;2022-12-31T04:55:52;14.90;86.20
33865;DHT22;20159;51.072;13.526;2022-12-31T04:58:17;14.90;86.20
33865;DHT22;20159;51.072;13.526;2022-12-31T05:00:44;14.90;86.30
33865;DHT22;20159;51.072;13.526;2022-12-31T05:03:13;15.00;86.40
33865;DHT22;20159;51.072;13.526;2022-12-31T05:05:39;15.00;86.60
33865;DHT22;20159;51.072;13.526;2022-12-31T05:08:07;15.00;87.00
33865;DHT22;20159;51.072;13.526;2022-12-31T05:10:33;15.10;86.50
33865;DHT22;20159;51.072;13.526;2022-12-31T05:12:58;15.10;86.40
33865;DHT22;20159;51.072;13.526;2022-12-31T05:15:24;15.10;86.20
33865;DHT22;20159;51.072;13.526;2022-12-31T05:17:49;15.10;86.20
33865;DHT22;20159;51.072;13.526;2022-12-31T05:20:15;15.20;86.20
33865;DHT22;20159;51.072;13.526;2022-12-31T05:22:40;15.20;86.30
33865;DHT22;20159;51.072;13.526;2022-12-31T05:25:06;15.20;86.20
33865;DHT22;20159;51.072;13.526;2022-12-31T05:27:32;15.20;86.50
33865;DHT22;20159;51.072;13.526;2022-12-31T05:29:58;15.20;86.40
33865;DHT22;20159;51.072;13.526;2022-12-31T05:32:24;15.30;86.20
33865;DHT22;20159;51.072;13.526;2022-12-31T05:34:49;15.30;86.00
33865;DHT22;20159;51.072;13.526;2022-12-31T05:37:15;15.30;86.00
33865;DHT22;20159;51.072;13.526;2022-12-31T05:39:40;15.30;86.10
33865;DHT22;20159;51.072;13.526;2022-12-31T05:42:06;15.30;86.10
33865;DHT22;20159;51.072;13.526;2022-12-31T05:44:31;15.30;86.30
33865;DHT22;20159;51.072;13.526;2022-12-31T05:46:57;15.30;86.40
33865;DHT22;20159;51.072;13.526;2022-12-31T05:49:22;15.30;86.50
33865;DHT22;20159;51.072;13.526;2022-12-31T05:51:48;15.30;86.50
33865;DHT22;20159;51.072;13.526;2022-12-31T05:54:13;15.30;86.50
33865;DHT22;20159;51.072;13.526;2022-12-31T05:56:38;15.30;86.50
33865;DHT22;20159;51.072;13.526;2022-12-31T05:59:04;15.30;86.60
33865;DHT22;20159;51.072;13.526;2022-12-31T06:01:29;15.30;86.60
33865;DHT22;20159;51.072;13.526;2022-12-31T06:03:55;15.30;86.70
33865;DHT22;20159;51.072;13.526;2022-12-31T06:06:20;15.40;86.70
33865;DHT22;20159;51.072;13.526;2022-12-31T06:08:50;15.40;86.80
33865;DHT22;20159;51.072;13.526;2022-12-31T06:11:15;15.40;86.70
33865;DHT22;20159;51.072;13.526;2022-12-31T06:13:41;15.50;86.50
33865;DHT22;20159;51.072;13.526;2022-12-31T06:16:07;15.50;86.40
33865;DHT22;20159;51.072;13.526;2022-12-31T06:18:33;15.50;86.30
33865;DHT22;20159;51.072;13.526;2022-12-31T06:20:59;15.60;86.20
33865;DHT22;20159;51.072;13.526;2022-12-31T06:23:25;15.60;86.00
33865;DHT22;20159;51.072;13.526;2022-12-31T06:25:50;15.60;86.00
33865;DHT22;20159;51.072;13.526;2022-12-31T06:28:16;15.60;85.90
33865;DHT22;20159;51.072;13.526;2022-12-31T06:30:41;15.70;85.90
33865;DHT22;20159;51.072;13.526;2022-12-31T06:33:07;15.70;85.80
33865;DHT22;20159;51.072;13.526;2022-12-31T06:35:32;15.70;85.70
33865;DHT22;20159;51.072;13.526;2022-12-31T06:37:58;18.30;86.90
33865;DHT22;20159;51.072;13.526;2022-12-31T06:40:23;15.70;85.50
33865;DHT22;20159;51.072;13.526;2022-12-31T06:42:49;15.80;85.40
33865;DHT22;20159;51.072;13.526;2022-12-31T06:45:14;15.80;85.30
33865;DHT22;20159;51.072;13.526;2022-12-31T06:47:40;15.80;85.20
33865;DHT22;20159;51.072;13.526;2022-12-31T06:50:06;15.90;85.20
33865;DHT22;20159;51.072;13.526;2022-12-31T06:52:32;15.90;85.00
33865;DHT22;20159;51.072;13.526;2022-12-31T06:54:58;15.90;84.90
33865;DHT22;20159;51.072;13.526;2022-12-31T06:57:24;15.90;84.70
33865;DHT22;20159;51.072;13.526;2022-12-31T06:59:49;15.90;84.80
33865;DHT22;20159;51.072;13.526;2022-12-31T07:05:05;15.90;84.50
33865;DHT22;20159;51.072;13.526;2022-12-31T07:07:49;16.00;84.60
33865;DHT22;20159;51.072;13.526;2022-12-31T07:10:34;16.00;84.40
33865;DHT22;20159;51.072;13.526;2022-12-31T07:16:10;16.10;84.40
33865;DHT22;20159;51.072;13.526;2022-12-31T07:18:49;16.20;84.20
33865;DHT22;20159;51.072;13.526;2022-12-31T07:21:21;16.30;84.10
33865;DHT22;20159;51.072;13.526;2022-12-31T07:23:50;16.30;83.70
33865;DHT22;20159;51.072;13.526;2022-12-31T07:29:29;16.40;83.50
33865;DHT22;20159;51.072;13.526;2022-12-31T07:37:43;16.50;83.20
33865;DHT22;20159;51.072;13.526;2022-12-31T07:40:21;16.50;83.20
33865;DHT22;20159;51.072;13.526;2022-12-31T07:46:15;16.60;82.80
33865;DHT22;20159;51.072;13.526;2022-12-31T07:48:41;16.70;83.20
33865;DHT22;20159;51.072;13.526;2022-12-31T07:51:10;16.70;83.20
33865;DHT22;20159;51.072;13.526;2022-12-31T07:53:36;16.80;82.90
33865;DHT22;20159;51.072;13.526;2022-12-31T07:56:04;16.90;82.90
33865;DHT22;20159;51.072;13.526;2022-12-31T08:01:06;17.00;82.40
33865;DHT22;20159;51.072;13.526;2022-12-31T08:03:42;17.00;82.50
33865;DHT22;20159;51.072;13.526;2022-12-31T08:06:23;17.10;82.40
33865;DHT22;20159;51.072;13.526;2022-12-31T08:09:06;17.20;82.10
33865;DHT22;20159;51.072;13.526;2022-12-31T08:11:36;17.20;82.10
33865;DHT22;20159;51.072;13.526;2022-12-31T08:14:09;17.30;82.10
33865;DHT22;20159;51.072;13.526;2022-12-31T08:16:36;17.30;81.70
33865;DHT22;20159;51.072;13.526;2022-12-31T08:19:01;17.40;81.70
33865;DHT22;20159;51.072;13.526;2022-12-31T08:21:47;17.50;81.60
33865;DHT22;20159;51.072;13.526;2022-12-31T08:24:20;17.60;81.80
33865;DHT22;20159;51.072;13.526;2022-12-31T08:27:00;17.70;81.60
33865;DHT22;20159;51.072;13.526;2022-12-31T08:29:44;17.80;81.30
33865;DHT22;20159;51.072;13.526;2022-12-31T08:32:24;17.90;80.10
33865;DHT22;20159;51.072;13.526;2022-12-31T08:37:31;18.20;79.80
33865;DHT22;20159;51.072;13.526;2022-12-31T08:45:51;18.40;78.70
33865;DHT22;20159;51.072;13.526;2022-12-31T08:48:37;18.50;78.40
33865;DHT22;20159;51.072;13.526;2022-12-31T08:51:04;18.50;78.40
33865;DHT22;20159;51.072;13.526;2022-12-31T08:53:29;18.50;78.50
33865;DHT22;20159;51.072;13.526;2022-12-31T08:56:42;18.50;78.30
33865;DHT22;20159;51.072;13.526;2022-12-31T08:58:51;18.50;78.20
33865;DHT22;20159;51.072;13.526;2022-12-31T09:01:24;18.50;78.20
33865;DHT22;20159;51.072;13.526;2022-12-31T09:04:09;18.50;78.00
33865;DHT22;20159;51.072;13.526;2022-12-31T09:06:46;18.50;77.70
33865;DHT22;20159;51.072;13.526;2022-12-31T09:09:35;18.50;77.90
33865;DHT22;20159;51.072;13.526;2022-12-31T09:12:27;18.50;77.90
33865;DHT22;20159;51.072;13.526;2022-12-31T09:15:05;18.50;77.30
33865;DHT22;20159;51.072;13.526;2022-12-31T09:17:44;18.50;77.70
33865;DHT22;20159;51.072;13.526;2022-12-31T09:20:28;18.60;78.10
33865;DHT22;20159;51.072;13.526;2022-12-31T09:22:55;18.60;78.10
33865;DHT22;20159;51.072;13.526;2022-12-31T09:25:22;18.60;77.70
33865;DHT22;20159;51.072;13.526;2022-12-31T09:30:46;18.70;77.30
33865;DHT22;20159;51.072;13.526;2022-12-31T09:33:39;18.70;77.20
33865;DHT22;20159;51.072;13.526;2022-12-31T09:36:09;18.70;76.70
33865;DHT22;20159;51.072;13.526;2022-12-31T09:39:28;18.70;77.00
33865;DHT22;20159;51.072;13.526;2022-12-31T09:44:52;18.80;76.90
33865;DHT22;20159;51.072;13.526;2022-12-31T09:53:37;18.90;76.10
33865;DHT22;20159;51.072;13.526;2022-12-31T09:56:14;18.90;76.60
33865;DHT22;20159;51.072;13.526;2022-12-31T09:58:47;19.00;77.20
33865;DHT22;20159;51.072;13.526;2022-12-31T10:01:36;19.00;76.40
33865;DHT22;20159;51.072;13.526;2022-12-31T10:07:01;19.10;76.10
33865;DHT22;20159;51.072;13.526;2022-12-31T10:09:45;19.20;76.00
33865;DHT22;20159;51.072;13.526;2022-12-31T10:13:15;19.30;75.70
33865;DHT22;20159;51.072;13.526;2022-12-31T10:16:11;19.40;75.60
33865;DHT22;20159;51.072;13.526;2022-12-31T10:18:50;19.50;75.50
33865;DHT22;20159;51.072;13.526;2022-12-31T10:26:36;19.70;74.50
33865;DHT22;20159;51.072;13.526;2022-12-31T10:32:07;19.80;73.90
33865;DHT22;20159;51.072;13.526;2022-12-31T10:34:53;19.90;73.60
33865;DHT22;20159;51.072;13.526;2022-12-31T10:37:28;19.90;73.30
33865;DHT22;20159;51.072;13.526;2022-12-31T10:50:41;20.10;72.40
33865;DHT22;20159;51.072;13.526;2022-12-31T10:53:37;20.00;72.20
33865;DHT22;20159;51.072;13.526;2022-12-31T11:04:51;19.90;72.40
33865;DHT22;20159;51.072;13.526;2022-12-31T11:07:59;19.80;72.70
33865;DHT22;20159;51.072;13.526;2022-12-31T11:10:51;19.80;72.50
33865;DHT22;20159;51.072;13.526;2022-12-31T11:16:26;19.70;72.60
33865;DHT22;20159;51.072;13.526;2022-12-31T11:19:26;19.70;72.80
33865;DHT22;20159;51.072;13.526;2022-12-31T11:25:06;19.70;73.10
33865;DHT22;20159;51.072;13.526;2022-12-31T11:28:07;19.70;73.10
33865;DHT22;20159;51.072;13.526;2022-12-31T11:44:56;19.80;73.10
33865;DHT22;20159;51.072;13.526;2022-12-31T11:47:48;19.90;73.70
33865;DHT22;20159;51.072;13.526;2022-12-31T11:50:45;19.90;73.10
33865;DHT22;20159;51.072;13.526;2022-12-31T11:56:20;20.10;72.90
33865;DHT22;20159;51.072;13.526;2022-12-31T11:58:50;20.10;72.80
33865;DHT22;20159;51.072;13.526;2022-12-31T12:03:54;20.20;72.10
33865;DHT22;20159;51.072;13.526;2022-12-31T12:06:25;20.20;72.00
33865;DHT22;20159;51.072;13.526;2022-12-31T12:08:52;20.10;71.70
33865;DHT22;20159;51.072;13.526;2022-12-31T12:11:23;20.20;71.80
33865;DHT22;20159;51.072;13.526;2022-12-31T12:13:49;20.20;71.40
33865;DHT22;20159;51.072;13.526;2022-12-31T12:16:15;20.30;71.60
33865;DHT22;20159;51.072;13.526;2022-12-31T12:18:50;20.30;71.40
33865;DHT22;20159;51.072;13.526;2022-12-31T12:21:25;20.40;71.60
33865;DHT22;20159;51.072;13.526;2022-12-31T12:26:31;20.50;71.00
33865;DHT22;20159;51.072;13.526;2022-12-31T12:29:18;20.60;70.40
33865;DHT22;20159;51.072;13.526;2022-12-31T12:31:55;20.70;70.30
33865;DHT22;20159;51.072;13.526;2022-12-31T12:34:29;20.80;70.40
33865;DHT22;20159;51.072;13.526;2022-12-31T12:36:56;20.80;70.20
33865;DHT22;20159;51.072;13.526;2022-12-31T12:39:26;20.90;70.30
33865;DHT22;20159;51.072;13.526;2022-12-31T12:41:59;21.00;70.00
33865;DHT22;20159;51.072;13.526;2022-12-31T12:44:26;21.00;69.30
33865;DHT22;20159;51.072;13.526;2022-12-31T12:46:52;21.00;69.40
33865;DHT22;20159;51.072;13.526;2022-12-31T12:49:26;21.10;69.60
33865;DHT22;20159;51.072;13.526;2022-12-31T12:52:14;21.00;69.00
33865;DHT22;20159;51.072;13.526;2022-12-31T12:55:11;21.00;68.70
33865;DHT22;20159;51.072;13.526;2022-12-31T12:57:57;21.00;68.50
33865;DHT22;20159;51.072;13.526;2022-12-31T13:11:49;20.70;68.80
33865;DHT22;20159;51.072;13.526;2022-12-31T13:14:36;20.60;69.20
33865;DHT22;20159;51.072;13.526;2022-12-31T13:20:12;20.50;69.40
33865;DHT22;20159;51.072;13.526;2022-12-31T13:22:43;20.40;69.30
33865;DHT22;20159;51.072;13.526;2022-12-31T13:27:50;20.40;69.30
33865;DHT22;20159;51.072;13.526;2022-12-31T13:30:19;20.30;69.90
33865;DHT22;20159;51.072;13.526;2022-12-31T13:35:47;20.10;70.10
33865;DHT22;20159;51.072;13.526;2022-12-31T13:38:16;20.10;70.20
33865;DHT22;20159;51.072;13.526;2022-12-31T13:41:11;20.00;70.00
33865;DHT22;20159;51.072;13.526;2022-12-31T13:43:42;20.00;70.00
33865;DHT22;20159;51.072;13.526;2022-12-31T13:46:29;19.90;70.40
33865;DHT22;20159;51.072;13.526;2022-12-31T13:49:01;19.80;70.50
33865;DHT22;20159;51.072;13.526;2022-12-31T13:51:50;19.80;70.70
33865;DHT22;20159;51.072;13.526;2022-12-31T13:54:37;19.80;70.50
33865;DHT22;20159;51.072;13.526;2022-12-31T13:57:21;19.70;70.50
33865;DHT22;20159;51.072;13.526;2022-12-31T13:59:53;19.70;70.90
33865;DHT22;20159;51.072;13.526;2022-12-31T14:02:34;19.60;71.30
33865;DHT22;20159;51.072;13.526;2022-12-31T14:07:39;19.50;71.30
33865;DHT22;20159;51.072;13.526;2022-12-31T14:10:14;19.50;71.40
33865;DHT22;20159;51.072;13.526;2022-12-31T14:13:24;19.40;71.70
33865;DHT22;20159;51.072;13.526;2022-12-31T14:16:00;19.40;71.50
33865;DHT22;20159;51.072;13.526;2022-12-31T14:18:49;19.30;71.60
33865;DHT22;20159;51.072;13.526;2022-12-31T14:26:36;19.20;71.90
33865;DHT22;20159;51.072;13.526;2022-12-31T14:37:55;19.00;72.10
33865;DHT22;20159;51.072;13.526;2022-12-31T14:40:36;19.00;72.40
33865;DHT22;20159;51.072;13.526;2022-12-31T14:43:27;19.00;72.40
33865;DHT22;20159;51.072;13.526;2022-12-31T14:46:02;18.90;72.70
33865;DHT22;20159;51.072;13.526;2022-12-31T14:51:34;18.80;72.60
33865;DHT22;20159;51.072;13.526;2022-12-31T14:54:01;18.90;72.70
33865;DHT22;20159;51.072;13.526;2022-12-31T14:56:30;18.80;72.70
33865;DHT22;20159;51.072;13.526;2022-12-31T14:58:58;18.80;72.60
33865;DHT22;20159;51.072;13.526;2022-12-31T15:01:24;18.80;72.90
33865;DHT22;20159;51.072;13.526;2022-12-31T15:03:51;18.70;72.70
33865;DHT22;20159;51.072;13.526;2022-12-31T15:09:05;18.70;72.80
33865;DHT22;20159;51.072;13.526;2022-12-31T15:14:30;18.60;72.80
33865;DHT22;20159;51.072;13.526;2022-12-31T15:17:03;18.60;73.00
33865;DHT22;20159;51.072;13.526;2022-12-31T15:19:59;18.60;73.00
33865;DHT22;20159;51.072;13.526;2022-12-31T15:27:58;18.50;73.20
33865;DHT22;20159;51.072;13.526;2022-12-31T15:32:57;18.40;73.40
33865;DHT22;20159;51.072;13.526;2022-12-31T15:35:47;18.40;73.60
33865;DHT22;20159;51.072;13.526;2022-12-31T15:40:46;18.30;73.60
33865;DHT22;20159;51.072;13.526;2022-12-31T15:45:41;18.20;74.20
33865;DHT22;20159;51.072;13.526;2022-12-31T15:48:14;18.20;73.70
33865;DHT22;20159;51.072;13.526;2022-12-31T15:50:41;18.20;73.80
33865;DHT22;20159;51.072;13.526;2022-12-31T15:53:07;18.10;74.10
33865;DHT22;20159;51.072;13.526;2022-12-31T15:55:41;18.10;74.10
33865;DHT22;20159;51.072;13.526;2022-12-31T15:58:15;18.10;74.20
33865;DHT22;20159;51.072;13.526;2022-12-31T16:03:22;18.00;74.20
33865;DHT22;20159;51.072;13.526;2022-12-31T16:05:49;18.00;74.30
33865;DHT22;20159;51.072;13.526;2022-12-31T16:08:20;18.00;74.30
33865;DHT22;20159;51.072;13.526;2022-12-31T16:10:46;18.00;74.40
33865;DHT22;20159;51.072;13.526;2022-12-31T16:13:21;19.40;75.20
33865;DHT22;20159;51.072;13.526;2022-12-31T16:15:52;17.90;74.50
33865;DHT22;20159;51.072;13.526;2022-12-31T16:18:21;17.90;74.70
33865;DHT22;20159;51.072;13.526;2022-12-31T16:20:47;17.90;74.70
33865;DHT22;20159;51.072;13.526;2022-12-31T16:23:25;17.80;74.70
33865;DHT22;20159;51.072;13.526;2022-12-31T16:25:54;17.80;74.80
33865;DHT22;20159;51.072;13.526;2022-12-31T16:28:28;17.80;74.60
33865;DHT22;20159;51.072;13.526;2022-12-31T16:31:06;17.80;74.80
33865;DHT22;20159;51.072;13.526;2022-12-31T16:33:32;17.80;74.80
33865;DHT22;20159;51.072;13.526;2022-12-31T16:36:00;17.80;74.90
33865;DHT22;20159;51.072;13.526;2022-12-31T16:38:36;17.80;75.00
33865;DHT22;20159;51.072;13.526;2022-12-31T16:43:36;17.80;74.90
33865;DHT22;20159;51.072;13.526;2022-12-31T16:51:21;17.90;74.90
33865;DHT22;20159;51.072;13.526;2022-12-31T16:53:48;17.80;74.70
33865;DHT22;20159;51.072;13.526;2022-12-31T16:56:22;17.90;74.70
33865;DHT22;20159;51.072;13.526;2022-12-31T16:58:49;17.90;74.70
33865;DHT22;20159;51.072;13.526;2022-12-31T17:01:24;17.90;74.70
33865;DHT22;20159;51.072;13.526;2022-12-31T17:03:54;17.90;74.60
33865;DHT22;20159;51.072;13.526;2022-12-31T17:06:22;17.90;74.40
33865;DHT22;20159;51.072;13.526;2022-12-31T17:09:02;18.00;74.30
33865;DHT22;20159;51.072;13.526;2022-12-31T17:11:34;18.00;74.30
33865;DHT22;20159;51.072;13.526;2022-12-31T17:16:37;18.00;74.20
33865;DHT22;20159;51.072;13.526;2022-12-31T17:19:05;18.00;74.80
33865;DHT22;20159;51.072;13.526;2022-12-31T17:21:31;18.10;74.40
33865;DHT22;20159;51.072;13.526;2022-12-31T17:24:03;18.10;74.10
33865;DHT22;20159;51.072;13.526;2022-12-31T17:26:31;18.10;74.10
33865;DHT22;20159;51.072;13.526;2022-12-31T17:28:58;18.10;74.00
33865;DHT22;20159;51.072;13.526;2022-12-31T17:31:28;18.10;74.10
33865;DHT22;20159;51.072;13.526;2022-12-31T17:37:13;18.20;73.50
33865;DHT22;20159;51.072;13.526;2022-12-31T17:39:47;18.30;73.60
33865;DHT22;20159;51.072;13.526;2022-12-31T17:42:20;18.30;73.40
33865;DHT22;20159;51.072;13.526;2022-12-31T17:44:47;18.30;73.60
33865;DHT22;20159;51.072;13.526;2022-12-31T17:47:13;18.40;73.50
33865;DHT22;20159;51.072;13.526;2022-12-31T17:49:40;18.40;73.20
33865;DHT22;20159;51.072;13.526;2022-12-31T17:52:14;18.40;73.20
33865;DHT22;20159;51.072;13.526;2022-12-31T17:54:40;18.40;72.90
33865;DHT22;20159;51.072;13.526;2022-12-31T17:57:08;18.40;73.00
33865;DHT22;20159;51.072;13.526;2022-12-31T17:59:42;18.40;73.00
33865;DHT22;20159;51.072;13.526;2022-12-31T18:02:10;18.40;72.90
33865;DHT22;20159;51.072;13.526;2022-12-31T18:04:37;18.40;72.80
33865;DHT22;20159;51.072;13.526;2022-12-31T18:07:02;18.30;72.80
33865;DHT22;20159;51.072;13.526;2022-12-31T18:09:28;18.30;72.60
33865;DHT22;20159;51.072;13.526;2022-12-31T18:11:53;18.30;72.40
33865;DHT22;20159;51.072;13.526;2022-12-31T18:14:19;18.30;72.50
33865;DHT22;20159;51.072;13.526;2022-12-31T18:16:44;18.20;72.50
33865;DHT22;20159;51.072;13.526;2022-12-31T18:19:14;18.20;72.50
33865;DHT22;20159;51.072;13.526;2022-12-31T18:21:41;18.20;72.30
33865;DHT22;20159;51.072;13.526;2022-12-31T18:24:13;18.20;72.20
33865;DHT22;20159;51.072;13.526;2022-12-31T18:26:40;18.10;72.30
33865;DHT22;20159;51.072;13.526;2022-12-31T18:29:17;18.10;72.40
33865;DHT22;20159;51.072;13.526;2022-12-31T18:31:45;18.10;72.40
33865;DHT22;20159;51.072;13.526;2022-12-31T18:34:14;18.10;72.40
33865;DHT22;20159;51.072;13.526;2022-12-31T18:36:41;18.00;72.20
33865;DHT22;20159;51.072;13.526;2022-12-31T18:39:06;18.00;72.30
33865;DHT22;20159;51.072;13.526;2022-12-31T18:41:39;18.00;72.30
33865;DHT22;20159;51.072;13.526;2022-12-31T18:44:05;17.90;72.10
33865;DHT22;20159;51.072;13.526;2022-12-31T18:46:31;17.90;72.20